| time (UTC) | temp C | wind direction | speed KPH | gust KPH | rain 1hr cm | rain 24hr cm | rain mn cm | humidity % | barometer mb |
| 20260510055017 | 12 | 45 | 11.3 | 20.9 | 0.00 | 0.00 | 0.00 | 76 | 1009.5 |
| 20260510054017 | 12 | 45 | 9.7 | 19.3 | 0.00 | 0.00 | 0.00 | 76 | 1009.7 |
| 20260510053016 | 12 | 45 | 11.3 | 17.7 | 0.00 | 0.00 | 0.00 | 77 | 1009.7 |
| 20260510052017 | 12 | 45 | 6.4 | 19.3 | 0.00 | 0.00 | 0.00 | 78 | 1010.0 |
| 20260510051016 | 12 | 68 | 3.2 | 4.8 | 0.00 | 0.00 | 0.00 | 75 | 1010.1 |
| 20260510050017 | 12 | 90 | 6.4 | 12.9 | 0.00 | 0.00 | 0.00 | 75 | 1010.0 |
| 20260510045036 | 12 | 68 | 9.7 | 19.3 | 0.00 | 0.00 | 0.00 | 75 | 1009.9 |
| 20260510044036 | 12 | 45 | 14.5 | 25.7 | 0.00 | 0.00 | 0.00 | 75 | 1009.4 |
| 20260510043036 | 12 | 45 | 16.1 | 25.7 | 0.00 | 0.00 | 0.00 | 74 | 1009.4 |
| 20260510042016 | 12 | 45 | 14.5 | 25.7 | 0.00 | 0.00 | 0.00 | 74 | 1009.3 |
| 20260510041016 | 12 | 45 | 16.1 | 22.5 | 0.00 | 0.00 | 0.00 | 74 | 1009.5 |
| 20260510040016 | 13 | 45 | 12.9 | 22.5 | 0.00 | 0.00 | 0.00 | 73 | 1009.6 |
| 20260510035016 | 13 | 68 | 14.5 | 20.9 | 0.00 | 0.00 | 0.00 | 72 | 1009.8 |
| 20260510034016 | 13 | 68 | 14.5 | 20.9 | 0.00 | 0.00 | 0.00 | 71 | 1009.9 |
| 20260510033016 | 13 | 68 | 14.5 | 22.5 | 0.00 | 0.00 | 0.00 | 71 | 1010.0 |
| 20260510032016 | 13 | 45 | 12.9 | 20.9 | 0.00 | 0.00 | 0.00 | 71 | 1010.0 |
| 20260510031056 | 13 | 68 | 14.5 | 22.5 | 0.00 | 0.00 | 0.00 | 70 | 1010.0 |
| 20260510030016 | 14 | 45 | 16.1 | 22.5 | 0.00 | 0.00 | 0.00 | 70 | 1010.2 |
| 20260510025016 | 14 | 68 | 12.9 | 17.7 | 0.00 | 0.00 | 0.00 | 69 | 1010.3 |
| 20260510024036 | 14 | 68 | 12.9 | 20.9 | 0.00 | 0.00 | 0.00 | 70 | 1010.2 |
| 20260510023016 | 14 | 68 | 14.5 | 24.1 | 0.00 | 0.00 | 0.00 | 70 | 1010.3 |
| 20260510022016 | 14 | 45 | 14.5 | 20.9 | 0.00 | 0.00 | 0.00 | 70 | 1010.3 |
| 20260510021016 | 14 | 68 | 14.5 | 22.5 | 0.00 | 0.00 | 0.00 | 70 | 1010.3 |
| 20260510020016 | 14 | 45 | 14.5 | 20.9 | 0.00 | 0.00 | 0.00 | 70 | 1010.4 |
| 20260510015016 | 14 | 45 | 11.3 | 24.1 | 0.00 | 0.00 | 0.00 | 70 | 1010.5 |
| 20260510014016 | 14 | 45 | 12.9 | 20.9 | 0.00 | 0.00 | 0.00 | 71 | 1010.6 |
| 20260510013016 | 14 | 68 | 14.5 | 20.9 | 0.00 | 0.00 | 0.00 | 71 | 1010.7 |
| 20260510012016 | 14 | 68 | 12.9 | 19.3 | 0.00 | 0.00 | 0.00 | 71 | 1010.8 |
| 20260510011016 | 15 | 45 | 12.9 | 22.5 | 0.00 | 0.00 | 0.00 | 70 | 1010.9 |
| 20260510010036 | 15 | 68 | 14.5 | 20.9 | 0.00 | 0.00 | 0.00 | 70 | 1011.0 |
| 20260510005016 | 15 | 68 | 16.1 | 22.5 | 0.00 | 0.00 | 0.00 | 70 | 1011.1 |
| 20260510004056 | 15 | 68 | 14.5 | 24.1 | 0.00 | 0.00 | 0.00 | 70 | 1011.3 |
| 20260510003016 | 15 | 68 | 14.5 | 22.5 | 0.00 | 0.00 | 0.00 | 70 | 1011.4 |
| 20260510002016 | 15 | 68 | 14.5 | 20.9 | 0.00 | 0.00 | 0.00 | 70 | 1011.5 |
| 20260510001016 | 15 | 68 | 14.5 | 19.3 | 0.00 | 0.00 | 0.00 | 70 | 1011.7 |
| 20260510000016 | 15 | 68 | 12.9 | 20.9 | 0.00 | 0.00 | 0.00 | 70 | 1011.8 |
| 20260509235016 | 15 | 68 | 12.9 | 19.3 | 0.00 | 0.00 | 0.00 | 70 | 1012.0 |
| 20260509234036 | 15 | 68 | 14.5 | 20.9 | 0.00 | 0.00 | 0.00 | 69 | 1012.0 |
| 20260509233016 | 15 | 45 | 12.9 | 20.9 | 0.00 | 0.00 | 0.00 | 69 | 1012.0 |
| 20260509232016 | 15 | 68 | 14.5 | 22.5 | 0.00 | 0.00 | 0.00 | 70 | 1012.0 |
| 20260509231036 | 15 | 68 | 14.5 | 22.5 | 0.00 | 0.00 | 0.00 | 70 | 1012.1 |
| 20260509230016 | 15 | 68 | 14.5 | 19.3 | 0.00 | 0.00 | 0.00 | 70 | 1012.1 |
| 20260509225016 | 15 | 68 | 12.9 | 20.9 | 0.00 | 0.00 | 0.00 | 71 | 1012.1 |
| 20260509224016 | 15 | 68 | 12.9 | 19.3 | 0.00 | 0.00 | 0.00 | 72 | 1012.2 |
| 20260509223016 | 15 | 68 | 11.3 | 16.1 | 0.00 | 0.00 | 0.00 | 71 | 1012.1 |
| 20260509222016 | 16 | 68 | 11.3 | 19.3 | 0.00 | 0.00 | 0.00 | 71 | 1012.2 |
| 20260509221016 | 16 | 68 | 12.9 | 16.1 | 0.00 | 0.00 | 0.00 | 71 | 1012.1 |
| 20260509220056 | 16 | 68 | 12.9 | 19.3 | 0.00 | 0.00 | 0.00 | 71 | 1012.2 |
| 20260509215016 | 16 | 68 | 11.3 | 17.7 | 0.00 | 0.00 | 0.00 | 72 | 1012.2 |
| 20260509214016 | 16 | 68 | 14.5 | 17.7 | 0.00 | 0.00 | 0.00 | 71 | 1012.2 |
| 20260509213036 | 16 | 68 | 12.9 | 20.9 | 0.00 | 0.00 | 0.00 | 71 | 1012.3 |
| 20260509212017 | 16 | 68 | 11.3 | 16.1 | 0.00 | 0.00 | 0.00 | 72 | 1012.4 |
| 20260509211016 | 16 | 45 | 9.7 | 14.5 | 0.00 | 0.00 | 0.00 | 74 | 1012.3 |
| 20260509210016 | 15 | 45 | 6.4 | 9.7 | 0.00 | 0.00 | 0.00 | 74 | 1012.3 |
| 20260509205016 | 16 | 68 | 8.0 | 14.5 | 0.00 | 0.00 | 0.00 | 74 | 1012.2 |
| 20260509204016 | 16 | 90 | 9.7 | 14.5 | 0.00 | 0.00 | 0.00 | 73 | 1012.0 |
| 20260509203016 | 16 | 90 | 9.7 | 12.9 | 0.00 | 0.00 | 0.00 | 73 | 1012.1 |
| 20260509202016 | 16 | 68 | 9.7 | 12.9 | 0.00 | 0.00 | 0.00 | 73 | 1012.0 |
| 20260509201016 | 16 | 90 | 8.0 | 12.9 | 0.00 | 0.00 | 0.00 | 72 | 1012.0 |
| 20260509200016 | 16 | 90 | 6.4 | 9.7 | 0.00 | 0.00 | 0.00 | 71 | 1012.0 |
| 20260509195016 | 17 | 90 | 8.0 | 9.7 | 0.00 | 0.00 | 0.00 | 70 | 1011.9 |
| 20260509194016 | 17 | 90 | 8.0 | 9.7 | 0.00 | 0.00 | 0.00 | 69 | 1011.8 |
| 20260509193036 | 17 | 68 | 6.4 | 8.0 | 0.00 | 0.00 | 0.00 | 67 | 1011.8 |
| 20260509192036 | 18 | 68 | 6.4 | 8.0 | 0.00 | 0.00 | 0.00 | 66 | 1011.7 |
| 20260509191016 | 18 | 68 | 6.4 | 8.0 | 0.00 | 0.00 | 0.00 | 65 | 1011.6 |
| 20260509190016 | 18 | 68 | 6.4 | 8.0 | 0.00 | 0.00 | 0.00 | 64 | 1011.7 |
| 20260509185016 | 19 | 68 | 6.4 | 8.0 | 0.00 | 0.00 | 0.00 | 63 | 1011.5 |
| 20260509184016 | 19 | 68 | 8.0 | 9.7 | 0.00 | 0.00 | 0.00 | 63 | 1011.4 |
| 20260509183016 | 20 | 90 | 8.0 | 12.9 | 0.00 | 0.00 | 0.00 | 62 | 1011.4 |
| 20260509182016 | 20 | 90 | 8.0 | 14.5 | 0.00 | 0.00 | 0.00 | 60 | 1011.4 |
| 20260509181116 | 20 | 90 | 4.8 | 9.7 | 0.00 | 0.00 | 0.00 | 59 | 1011.3 |
| 20260509180056 | 21 | 90 | 4.8 | 9.7 | 0.00 | 0.00 | 0.00 | 58 | 1011.2 |
| 20260509175016 | 21 | 90 | 9.7 | 16.1 | 0.00 | 0.00 | 0.00 | 56 | 1011.2 |
| 20260509174016 | 21 | 90 | 9.7 | 16.1 | 0.00 | 0.00 | 0.00 | 54 | 1011.2 |
| 20260509173036 | 22 | 113 | 9.7 | 17.7 | 0.00 | 0.00 | 0.00 | 54 | 1011.4 |
| 20260509172016 | 22 | 68 | 8.0 | 16.1 | 0.00 | 0.00 | 0.00 | 56 | 1011.5 |
| 20260509171016 | 21 | 68 | 14.5 | 20.9 | 0.00 | 0.00 | 0.00 | 55 | 1011.5 |
| 20260509170016 | 22 | 68 | 12.9 | 17.7 | 0.00 | 0.00 | 0.00 | 55 | 1011.5 |
| 20260509165016 | 21 | 68 | 9.7 | 14.5 | 0.00 | 0.00 | 0.00 | 56 | 1011.6 |
| 20260509164016 | 21 | 68 | 8.0 | 16.1 | 0.00 | 0.00 | 0.00 | 57 | 1011.6 |
| 20260509163036 | 21 | 68 | 8.0 | 12.9 | 0.00 | 0.00 | 0.00 | 56 | 1011.7 |
| 20260509162016 | 22 | 113 | 9.7 | 14.5 | 0.00 | 0.00 | 0.00 | 52 | 1011.7 |
| 20260509161016 | 22 | 113 | 12.9 | 22.5 | 0.00 | 0.00 | 0.00 | 52 | 1011.8 |
| 20260509160016 | 22 | 68 | 4.8 | 8.0 | 0.00 | 0.00 | 0.00 | 53 | 1011.9 |
| 20260509155016 | 22 | 23 | 4.8 | 8.0 | 0.00 | 0.00 | 0.00 | 59 | 1011.9 |
| 20260509154016 | 22 | 90 | 6.4 | 12.9 | 0.00 | 0.00 | 0.00 | 58 | 1012.0 |
| 20260509153036 | 22 | 90 | 6.4 | 12.9 | 0.00 | 0.00 | 0.00 | 55 | 1012.1 |
| 20260509152016 | 22 | 113 | 6.4 | 9.7 | 0.00 | 0.00 | 0.00 | 54 | 1012.3 |
| 20260509151016 | 22 | 113 | 8.0 | 12.9 | 0.00 | 0.00 | 0.00 | 54 | 1012.4 |
| 20260509150015 | 22 | 113 | 9.7 | 17.7 | 0.00 | 0.00 | 0.00 | 55 | 1012.6 |
| 20260509145015 | 22 | 113 | 12.9 | 17.7 | 0.00 | 0.00 | 0.00 | 55 | 1012.6 |
| 20260509144016 | 22 | 113 | 11.3 | 19.3 | 0.00 | 0.00 | 0.00 | 54 | 1012.6 |
| 20260509143016 | 22 | 113 | 14.5 | 22.5 | 0.00 | 0.00 | 0.00 | 55 | 1012.6 |
| 20260509142015 | 21 | 90 | 6.4 | 14.5 | 0.00 | 0.00 | 0.00 | 59 | 1012.5 |
| 20260509141016 | 21 | 135 | 6.4 | 14.5 | 0.00 | 0.00 | 0.00 | 57 | 1012.6 |
| 20260509140016 | 22 | 113 | 8.0 | 16.1 | 0.00 | 0.00 | 0.00 | 57 | 1012.6 |
| 20260509135017 | 22 | 113 | 12.9 | 22.5 | 0.00 | 0.00 | 0.00 | 56 | 1012.5 |
| 20260509134015 | 21 | 113 | 12.9 | 24.1 | 0.00 | 0.00 | 0.00 | 56 | 1012.5 |
| 20260509133016 | 22 | 90 | 9.7 | 20.9 | 0.00 | 0.00 | 0.00 | 56 | 1012.6 |
| 20260509132016 | 23 | 135 | 11.3 | 24.1 | 0.00 | 0.00 | 0.00 | 52 | 1012.7 |
| 20260509131015 | 22 | 90 | 11.3 | 17.7 | 0.00 | 0.00 | 0.00 | 56 | 1012.8 |
| 20260509130015 | 22 | 113 | 14.5 | 22.5 | 0.00 | 0.00 | 0.00 | 55 | 1012.9 |
| 20260509125036 | 22 | 158 | 9.7 | 19.3 | 0.00 | 0.00 | 0.00 | 53 | 1012.9 |
| 20260509124015 | 22 | 113 | 12.9 | 22.5 | 0.00 | 0.00 | 0.00 | 56 | 1012.9 |
| 20260509123015 | 21 | 68 | 8.0 | 16.1 | 0.00 | 0.00 | 0.00 | 61 | 1012.9 |
| 20260509122035 | 21 | 68 | 11.3 | 19.3 | 0.00 | 0.00 | 0.00 | 61 | 1013.1 |
| 20260509121056 | 21 | 68 | 8.0 | 14.5 | 0.00 | 0.00 | 0.00 | 60 | 1013.3 |
| 20260509120036 | 21 | 90 | 16.1 | 24.1 | 0.00 | 0.00 | 0.00 | 61 | 1013.5 |
| 20260509115015 | 21 | 68 | 9.7 | 17.7 | 0.00 | 0.00 | 0.00 | 58 | 1013.5 |
| 20260509114016 | 21 | 135 | 9.7 | 16.1 | 0.00 | 0.00 | 0.00 | 58 | 1013.5 |
| 20260509113015 | 21 | 135 | 9.7 | 19.3 | 0.00 | 0.00 | 0.00 | 57 | 1013.6 |
| 20260509112015 | 21 | 135 | 9.7 | 16.1 | 0.00 | 0.00 | 0.00 | 57 | 1013.7 |
| 20260509111015 | 21 | 158 | 4.8 | 9.7 | 0.00 | 0.00 | 0.00 | 62 | 1013.8 |
| 20260509110016 | 21 | 68 | 8.0 | 20.9 | 0.00 | 0.00 | 0.00 | 65 | 1013.9 |
| 20260509105015 | 20 | 113 | 3.2 | 11.3 | 0.00 | 0.00 | 0.00 | 63 | 1013.9 |
| 20260509104015 | 20 | 90 | 9.7 | 19.3 | 0.00 | 0.00 | 0.00 | 65 | 1014.0 |
| 20260509103035 | 20 | 45 | 8.0 | 12.9 | 0.00 | 0.00 | 0.00 | 64 | 1014.1 |
| 20260509102015 | 20 | 68 | 6.4 | 14.5 | 0.00 | 0.00 | 0.00 | 65 | 1014.1 |
| 20260509101015 | 20 | 68 | 9.7 | 17.7 | 0.00 | 0.00 | 0.00 | 65 | 1014.3 |
| 20260509100017 | 19 | 90 | 6.4 | 14.5 | 0.00 | 0.00 | 0.00 | 64 | 1014.2 |
| 20260509095037 | 19 | 23 | 9.7 | 14.5 | 0.00 | 0.00 | 0.00 | 67 | 1014.3 |
| 20260509094017 | 19 | 113 | 4.8 | 11.3 | 0.00 | 0.00 | 0.00 | 64 | 1014.4 |
| 20260509093017 | 18 | 45 | 8.0 | 14.5 | 0.00 | 0.00 | 0.00 | 67 | 1014.4 |
| 20260509092017 | 18 | 68 | 11.3 | 17.7 | 0.00 | 0.00 | 0.00 | 65 | 1014.4 |
| 20260509091017 | 18 | 68 | 4.8 | 14.5 | 0.00 | 0.00 | 0.00 | 67 | 1014.4 |
| 20260509090017 | 18 | 45 | 4.8 | 9.7 | 0.00 | 0.00 | 0.00 | 66 | 1014.4 |
| 20260509085017 | 17 | 45 | 4.8 | 9.7 | 0.00 | 0.00 | 0.00 | 68 | 1014.4 |
| 20260509084017 | 17 | 68 | 4.8 | 9.7 | 0.00 | 0.00 | 0.00 | 69 | 1014.4 |
| 20260509083017 | 17 | 68 | 6.4 | 9.7 | 0.00 | 0.00 | 0.00 | 71 | 1014.5 |
| 20260509082057 | 16 | 135 | 3.2 | 6.4 | 0.00 | 0.00 | 0.00 | 69 | 1014.6 |
| 20260509081017 | 16 | 113 | 6.4 | 14.5 | 0.00 | 0.00 | 0.00 | 71 | 1014.7 |
| 20260509080017 | 16 | 90 | 4.8 | 8.0 | 0.00 | 0.00 | 0.00 | 72 | 1014.7 |
| 20260509075017 | 16 | 135 | 4.8 | 11.3 | 0.00 | 0.00 | 0.00 | 72 | 1014.9 |
| 20260509074037 | 15 | 113 | 4.8 | 9.7 | 0.00 | 0.00 | 0.00 | 72 | 1014.9 |
| 20260509073017 | 15 | 113 | 6.4 | 14.5 | 0.00 | 0.00 | 0.00 | 75 | 1015.0 |
| 20260509072018 | 15 | 113 | 6.4 | 12.9 | 0.00 | 0.00 | 0.00 | 78 | 1015.0 |
| 20260509071017 | 14 | 90 | 4.8 | 11.3 | 0.00 | 0.00 | 0.00 | 79 | 1014.9 |
| 20260509070021 | 13 | 113 | 6.4 | 16.1 | 0.00 | 0.00 | 0.00 | 80 | 1014.8 |
| 20260509065057 | 13 | 45 | 11.3 | 17.7 | 0.00 | 0.00 | 0.00 | 80 | 1014.6 |
| 20260509064057 | 12 | 45 | 9.7 | 19.3 | 0.00 | 0.00 | 0.00 | 82 | 1014.6 |
| 20260509063017 | 12 | 45 | 12.9 | 17.7 | 0.00 | 0.00 | 0.00 | 83 | 1014.7 |
| 20260509062017 | 12 | 68 | 11.3 | 16.1 | 0.00 | 0.00 | 0.00 | 84 | 1014.8 |
| 20260509061017 | 11 | 68 | 8.0 | 12.9 | 0.00 | 0.00 | 0.00 | 84 | 1014.8 |
| 20260509060017 | 11 | 68 | 8.0 | 14.5 | 0.00 | 0.00 | 0.00 | 86 | 1014.8 |